sensor_id;sensor_type;location;lat;lon;timestamp;pressure;altitude;pressure_sealevel;temperature;humidity
65758;BME280;52495;52.208;5.158;2022-10-13T00:01:51;101834.91;;;11.46;81.27
65758;BME280;52495;52.208;5.158;2022-10-13T00:04:19;101832.34;;;11.44;81.27
65758;BME280;52495;52.208;5.158;2022-10-13T00:06:45;101831.47;;;11.47;80.67
65758;BME280;52495;52.208;5.158;2022-10-13T00:09:12;101821.16;;;11.44;81.05
65758;BME280;52495;52.208;5.158;2022-10-13T00:11:38;101822.88;;;11.43;81.48
65758;BME280;52495;52.208;5.158;2022-10-13T00:14:05;101826.31;;;11.45;81.67
65758;BME280;52495;52.208;5.158;2022-10-13T00:16:36;101825.44;;;11.45;81.69
65758;BME280;52495;52.208;5.158;2022-10-13T00:19:05;101828.03;;;11.46;81.98
65758;BME280;52495;52.208;5.158;2022-10-13T00:21:33;101834.06;;;11.47;81.91
65758;BME280;52495;52.208;5.158;2022-10-13T00:24:00;101824.59;;;11.47;81.89
65758;BME280;52495;52.208;5.158;2022-10-13T00:26:26;101819.41;;;11.47;81.73
65758;BME280;52495;52.208;5.158;2022-10-13T00:28:53;101816.81;;;11.47;82.08
65758;BME280;52495;52.208;5.158;2022-10-13T00:31:21;101815.94;;;11.47;82.05
65758;BME280;52495;52.208;5.158;2022-10-13T00:33:48;101821.97;;;11.49;81.77
65758;BME280;52495;52.208;5.158;2022-10-13T00:36:16;101815.97;;;11.48;82.47
65758;BME280;52495;52.208;5.158;2022-10-13T00:38:45;101809.91;;;11.48;82.68
65758;BME280;52495;52.208;5.158;2022-10-13T00:41:11;101815.06;;;11.51;82.75
65758;BME280;52495;52.208;5.158;2022-10-13T00:43:52;101813.34;;;11.53;83.42
65758;BME280;52495;52.208;5.158;2022-10-13T00:46:19;101814.19;;;11.55;83.31
65758;BME280;52495;52.208;5.158;2022-10-13T00:48:53;101809.88;;;11.57;83.15
65758;BME280;52495;52.208;5.158;2022-10-13T00:51:22;101803.84;;;11.58;83.13
65758;BME280;52495;52.208;5.158;2022-10-13T00:53:53;101814.16;;;11.60;83.31
65758;BME280;52495;52.208;5.158;2022-10-13T00:56:21;101809.84;;;11.62;83.00
65758;BME280;52495;52.208;5.158;2022-10-13T00:58:49;101802.94;;;11.62;83.42
65758;BME280;52495;52.208;5.158;2022-10-13T01:01:16;101811.53;;;11.64;83.46
65758;BME280;52495;52.208;5.158;2022-10-13T01:03:43;101819.28;;;11.67;83.75
65758;BME280;52495;52.208;5.158;2022-10-13T01:06:10;101815.84;;;11.68;83.49
65758;BME280;52495;52.208;5.158;2022-10-13T01:08:37;101809.78;;;11.71;83.61
65758;BME280;52495;52.208;5.158;2022-10-13T01:11:14;101817.53;;;11.74;83.95
65758;BME280;52495;52.208;5.158;2022-10-13T01:13:47;101812.34;;;11.76;84.07
65758;BME280;52495;52.208;5.158;2022-10-13T01:16:17;101811.47;;;11.78;84.26
65758;BME280;52495;52.208;5.158;2022-10-13T01:18:50;101808.00;;;11.81;84.36
65758;BME280;52495;52.208;5.158;2022-10-13T01:21:21;101811.44;;;11.83;84.23
65758;BME280;52495;52.208;5.158;2022-10-13T01:24:13;101809.69;;;11.85;84.48
65758;BME280;52495;52.208;5.158;2022-10-13T01:32:01;101810.53;;;11.89;84.50
65758;BME280;52495;52.208;5.158;2022-10-13T01:34:32;101805.34;;;11.90;84.57
65758;BME280;52495;52.208;5.158;2022-10-13T01:37:01;101799.31;;;11.91;84.66
65758;BME280;52495;52.208;5.158;2022-10-13T01:39:32;101804.47;;;11.93;85.02
65758;BME280;52495;52.208;5.158;2022-10-13T01:42:05;101797.56;;;11.93;85.08
65758;BME280;52495;52.208;5.158;2022-10-13T01:44:37;101803.59;;;11.95;85.16
65758;BME280;52495;52.208;5.158;2022-10-13T01:47:06;101793.25;;;11.95;85.41
65758;BME280;52495;52.208;5.158;2022-10-13T01:49:34;101798.41;;;11.97;85.50
65758;BME280;52495;52.208;5.158;2022-10-13T01:52:02;101789.78;;;11.99;85.91
65758;BME280;52495;52.208;5.158;2022-10-13T01:54:31;101780.28;;;12.00;85.87
65758;BME280;52495;52.208;5.158;2022-10-13T01:56:58;101756.09;;;12.03;85.17
65758;BME280;52495;52.208;5.158;2022-10-13T01:59:24;101757.81;;;12.05;84.91
65758;BME280;52495;52.208;5.158;2022-10-13T02:01:55;101749.19;;;12.05;84.96
65758;BME280;52495;52.208;5.158;2022-10-13T02:04:30;101750.91;;;12.06;85.44
65758;BME280;52495;52.208;5.158;2022-10-13T02:07:06;101751.75;;;12.06;85.79
65758;BME280;52495;52.208;5.158;2022-10-13T02:09:38;101761.25;;;12.07;85.94
65758;BME280;52495;52.208;5.158;2022-10-13T02:12:11;101781.94;;;12.12;85.86
65758;BME280;52495;52.208;5.158;2022-10-13T02:14:41;101772.44;;;12.11;85.68
65758;BME280;52495;52.208;5.158;2022-10-13T02:17:10;101779.31;;;12.13;86.04
65758;BME280;52495;52.208;5.158;2022-10-13T02:19:42;101774.13;;;12.15;86.30
65758;BME280;52495;52.208;5.158;2022-10-13T02:22:10;101776.69;;;12.15;86.43
65758;BME280;52495;52.208;5.158;2022-10-13T02:24:39;101779.28;;;12.15;86.55
65758;BME280;52495;52.208;5.158;2022-10-13T02:27:06;101784.47;;;12.15;87.18
65758;BME280;52495;52.208;5.158;2022-10-13T02:29:33;101778.44;;;12.14;87.61
65758;BME280;52495;52.208;5.158;2022-10-13T02:32:00;101769.81;;;12.16;87.60
65758;BME280;52495;52.208;5.158;2022-10-13T02:34:26;101756.00;;;12.17;87.63
65758;BME280;52495;52.208;5.158;2022-10-13T02:36:55;101755.13;;;12.16;87.78
65758;BME280;52495;52.208;5.158;2022-10-13T02:39:21;101739.59;;;12.16;87.54
65758;BME280;52495;52.208;5.158;2022-10-13T02:41:48;101713.69;;;12.16;87.03
65758;BME280;52495;52.208;5.158;2022-10-13T02:44:14;101696.44;;;12.15;87.94
65758;BME280;52495;52.208;5.158;2022-10-13T02:46:41;101693.84;;;12.18;86.13
65758;BME280;52495;52.208;5.158;2022-10-13T02:49:08;101695.59;;;12.14;86.37
65758;BME280;52495;52.208;5.158;2022-10-13T02:51:34;101723.25;;;12.09;87.96
65758;BME280;52495;52.208;5.158;2022-10-13T02:54:03;101731.06;;;12.08;89.38
65758;BME280;52495;52.208;5.158;2022-10-13T02:56:29;101729.31;;;12.08;89.34
65758;BME280;52495;52.208;5.158;2022-10-13T02:58:56;101737.94;;;12.09;89.74
65758;BME280;52495;52.208;5.158;2022-10-13T03:01:22;101741.41;;;12.08;89.81
65758;BME280;52495;52.208;5.158;2022-10-13T03:03:49;101743.97;;;12.09;90.33
65758;BME280;52495;52.208;5.158;2022-10-13T03:06:16;101746.59;;;12.08;90.21
65758;BME280;52495;52.208;5.158;2022-10-13T03:08:43;101744.00;;;12.08;90.27
65758;BME280;52495;52.208;5.158;2022-10-13T03:11:11;101728.44;;;12.09;89.71
65758;BME280;52495;52.208;5.158;2022-10-13T03:13:37;101723.28;;;12.08;89.96
65758;BME280;52495;52.208;5.158;2022-10-13T03:16:05;101733.63;;;12.06;90.74
65758;BME280;52495;52.208;5.158;2022-10-13T03:18:31;101730.19;;;12.07;90.89
65758;BME280;52495;52.208;5.158;2022-10-13T03:20:58;101728.47;;;12.08;91.00
65758;BME280;52495;52.208;5.158;2022-10-13T03:23:26;101718.09;;;12.08;91.18
65758;BME280;52495;52.208;5.158;2022-10-13T03:25:52;101721.53;;;12.08;91.15
65758;BME280;52495;52.208;5.158;2022-10-13T03:28:21;101726.72;;;12.08;91.47
65758;BME280;52495;52.208;5.158;2022-10-13T03:30:49;101712.09;;;12.06;91.55
65758;BME280;52495;52.208;5.158;2022-10-13T03:33:16;101714.66;;;12.07;91.69
65758;BME280;52495;52.208;5.158;2022-10-13T03:35:43;101701.69;;;12.07;91.64
65758;BME280;52495;52.208;5.158;2022-10-13T03:38:09;101692.19;;;12.09;92.03
65758;BME280;52495;52.208;5.158;2022-10-13T03:40:36;101693.06;;;12.10;92.02
65758;BME280;52495;52.208;5.158;2022-10-13T03:43:03;101688.75;;;12.10;91.99
65758;BME280;52495;52.208;5.158;2022-10-13T03:45:31;101688.75;;;12.12;92.14
65758;BME280;52495;52.208;5.158;2022-10-13T03:47:57;101698.22;;;12.11;92.29
65758;BME280;52495;52.208;5.158;2022-10-13T03:50:24;101695.63;;;12.11;92.51
65758;BME280;52495;52.208;5.158;2022-10-13T03:52:52;101689.63;;;12.11;92.58
65758;BME280;52495;52.208;5.158;2022-10-13T03:55:19;101688.75;;;12.12;92.67
65758;BME280;52495;52.208;5.158;2022-10-13T03:57:45;101694.75;;;12.12;92.61
65758;BME280;52495;52.208;5.158;2022-10-13T04:00:12;101686.09;;;12.15;92.83
65758;BME280;52495;52.208;5.158;2022-10-13T04:02:41;101692.16;;;12.14;92.86
65758;BME280;52495;52.208;5.158;2022-10-13T04:05:08;101699.91;;;12.14;92.87
65758;BME280;52495;52.208;5.158;2022-10-13T04:07:35;101694.75;;;12.12;93.30
65758;BME280;52495;52.208;5.158;2022-10-13T04:10:10;101692.16;;;12.14;93.25
65758;BME280;52495;52.208;5.158;2022-10-13T04:12:38;101686.09;;;12.15;93.48
65758;BME280;52495;52.208;5.158;2022-10-13T04:15:05;101675.75;;;12.15;93.64
65758;BME280;52495;52.208;5.158;2022-10-13T04:17:32;101658.47;;;12.19;93.76
65758;BME280;52495;52.208;5.158;2022-10-13T04:20:00;101649.81;;;12.20;93.92
65758;BME280;52495;52.208;5.158;2022-10-13T04:22:26;101661.88;;;12.22;93.89
65758;BME280;52495;52.208;5.158;2022-10-13T04:24:53;101658.41;;;12.23;94.08
65758;BME280;52495;52.208;5.158;2022-10-13T04:27:19;101663.59;;;12.23;93.62
65758;BME280;52495;52.208;5.158;2022-10-13T04:29:47;101660.13;;;12.24;93.82
65758;BME280;52495;52.208;5.158;2022-10-13T04:32:14;101667.03;;;12.25;93.99
65758;BME280;52495;52.208;5.158;2022-10-13T04:34:40;101673.91;;;12.25;93.71
65758;BME280;52495;52.208;5.158;2022-10-13T04:37:08;101661.84;;;12.25;94.22
65758;BME280;52495;52.208;5.158;2022-10-13T04:39:35;101662.69;;;12.26;94.00
65758;BME280;52495;52.208;5.158;2022-10-13T04:42:02;101663.56;;;12.26;94.25
65758;BME280;52495;52.208;5.158;2022-10-13T04:44:29;101678.22;;;12.27;94.51
65758;BME280;52495;52.208;5.158;2022-10-13T04:46:56;101679.06;;;12.29;94.74
65758;BME280;52495;52.208;5.158;2022-10-13T04:49:24;101676.47;;;12.28;94.53
65758;BME280;52495;52.208;5.158;2022-10-13T04:51:51;101688.53;;;12.30;94.89
65758;BME280;52495;52.208;5.158;2022-10-13T04:54:19;101682.50;;;12.30;95.18
65758;BME280;52495;52.208;5.158;2022-10-13T04:56:46;101679.88;;;12.32;95.07
65758;BME280;52495;52.208;5.158;2022-10-13T04:59:12;101683.34;;;12.32;95.49
65758;BME280;52495;52.208;5.158;2022-10-13T05:01:39;101684.19;;;12.34;95.33
65758;BME280;52495;52.208;5.158;2022-10-13T05:04:09;101683.31;;;12.35;95.40
65758;BME280;52495;52.208;5.158;2022-10-13T05:06:36;101680.69;;;12.37;95.66
65758;BME280;52495;52.208;5.158;2022-10-13T05:09:03;101680.66;;;12.40;95.80
65758;BME280;52495;52.208;5.158;2022-10-13T05:11:31;101679.78;;;12.41;95.33
65758;BME280;52495;52.208;5.158;2022-10-13T05:13:58;101670.28;;;12.41;95.63
65758;BME280;52495;52.208;5.158;2022-10-13T05:16:25;101667.66;;;12.44;94.83
65758;BME280;52495;52.208;5.158;2022-10-13T05:18:52;101661.63;;;12.44;95.32
65758;BME280;52495;52.208;5.158;2022-10-13T05:21:20;101669.38;;;12.45;95.72
65758;BME280;52495;52.208;5.158;2022-10-13T05:23:47;101674.56;;;12.45;95.58
65758;BME280;52495;52.208;5.158;2022-10-13T05:26:14;101672.84;;;12.46;96.03
65758;BME280;52495;52.208;5.158;2022-10-13T05:28:43;101666.75;;;12.49;95.35
65758;BME280;52495;52.208;5.158;2022-10-13T05:31:10;101669.34;;;12.49;95.53
65758;BME280;52495;52.208;5.158;2022-10-13T05:33:37;101669.31;;;12.50;95.42
65758;BME280;52495;52.208;5.158;2022-10-13T05:36:05;101660.69;;;12.50;95.89
65758;BME280;52495;52.208;5.158;2022-10-13T05:38:35;101665.00;;;12.49;95.92
65758;BME280;52495;52.208;5.158;2022-10-13T05:41:03;101668.47;;;12.48;96.23
65758;BME280;52495;52.208;5.158;2022-10-13T05:43:30;101668.47;;;12.48;96.22
65758;BME280;52495;52.208;5.158;2022-10-13T05:45:58;101665.88;;;12.48;96.14
65758;BME280;52495;52.208;5.158;2022-10-13T05:48:27;101662.44;;;12.48;96.19
65758;BME280;52495;52.208;5.158;2022-10-13T05:50:54;101661.56;;;12.49;96.21
65758;BME280;52495;52.208;5.158;2022-10-13T05:53:21;101658.09;;;12.48;96.40
65758;BME280;52495;52.208;5.158;2022-10-13T05:55:47;101658.94;;;12.50;95.91
65758;BME280;52495;52.208;5.158;2022-10-13T05:58:14;101652.06;;;12.49;96.24
65758;BME280;52495;52.208;5.158;2022-10-13T06:00:44;101663.28;;;12.50;96.43
65758;BME280;52495;52.208;5.158;2022-10-13T06:03:13;101662.41;;;12.51;96.75
65758;BME280;52495;52.208;5.158;2022-10-13T06:05:42;101659.81;;;12.51;96.40
65758;BME280;52495;52.208;5.158;2022-10-13T06:08:12;101649.47;;;12.51;96.73
65758;BME280;52495;52.208;5.158;2022-10-13T06:10:39;101655.50;;;12.53;96.19
65758;BME280;52495;52.208;5.158;2022-10-13T06:13:06;101650.31;;;12.51;96.59
65758;BME280;52495;52.208;5.158;2022-10-13T06:15:33;101648.59;;;12.50;96.76
65758;BME280;52495;52.208;5.158;2022-10-13T06:18:00;101632.19;;;12.51;97.20
65758;BME280;52495;52.208;5.158;2022-10-13T06:20:28;101626.16;;;12.51;97.15
65758;BME280;52495;52.208;5.158;2022-10-13T06:22:55;101629.59;;;12.53;97.43
65758;BME280;52495;52.208;5.158;2022-10-13T06:25:21;101622.69;;;12.52;97.39
65758;BME280;52495;52.208;5.158;2022-10-13T06:27:48;101626.13;;;12.54;97.49
65758;BME280;52495;52.208;5.158;2022-10-13T06:30:15;101615.72;;;12.55;97.04
65758;BME280;52495;52.208;5.158;2022-10-13T06:32:41;101617.41;;;12.58;96.35
65758;BME280;52495;52.208;5.158;2022-10-13T06:35:08;101627.81;;;12.56;96.86
65758;BME280;52495;52.208;5.158;2022-10-13T06:37:36;101643.34;;;12.56;96.95
65758;BME280;52495;52.208;5.158;2022-10-13T06:40:03;101623.50;;;12.55;97.31
65758;BME280;52495;52.208;5.158;2022-10-13T06:42:30;101639.03;;;12.55;97.17
65758;BME280;52495;52.208;5.158;2022-10-13T06:45:07;101651.13;;;12.56;97.19
65758;BME280;52495;52.208;5.158;2022-10-13T06:47:34;101640.75;;;12.56;97.43
65758;BME280;52495;52.208;5.158;2022-10-13T06:50:03;101656.25;;;12.58;97.41
65758;BME280;52495;52.208;5.158;2022-10-13T06:52:29;101656.25;;;12.59;97.75
65758;BME280;52495;52.208;5.158;2022-10-13T06:54:57;101656.25;;;12.58;97.67
65758;BME280;52495;52.208;5.158;2022-10-13T06:57:24;101645.91;;;12.58;97.66
65758;BME280;52495;52.208;5.158;2022-10-13T06:59:50;101649.34;;;12.60;97.93
65758;BME280;52495;52.208;5.158;2022-10-13T07:02:18;101642.44;;;12.60;98.15
65758;BME280;52495;52.208;5.158;2022-10-13T07:04:45;101648.47;;;12.61;98.32
65758;BME280;52495;52.208;5.158;2022-10-13T07:07:12;101652.78;;;12.64;98.53
65758;BME280;52495;52.208;5.158;2022-10-13T07:09:39;101644.09;;;12.65;98.22
65758;BME280;52495;52.208;5.158;2022-10-13T07:12:07;101646.69;;;12.66;98.19
65758;BME280;52495;52.208;5.158;2022-10-13T07:14:33;101650.97;;;12.67;98.44
65758;BME280;52495;52.208;5.158;2022-10-13T07:17:00;101644.94;;;12.67;98.82
65758;BME280;52495;52.208;5.158;2022-10-13T07:19:26;101644.91;;;12.70;98.66
65758;BME280;52495;52.208;5.158;2022-10-13T07:21:53;101641.44;;;12.71;99.17
65758;BME280;52495;52.208;5.158;2022-10-13T07:24:22;101642.28;;;12.73;98.89
65758;BME280;52495;52.208;5.158;2022-10-13T07:26:48;101637.94;;;12.73;99.29
65758;BME280;52495;52.208;5.158;2022-10-13T07:29:16;101637.91;;;12.77;99.07
65758;BME280;52495;52.208;5.158;2022-10-13T07:31:43;101638.78;;;12.77;99.47
65758;BME280;52495;52.208;5.158;2022-10-13T07:34:10;101639.56;;;12.81;99.46
65758;BME280;52495;52.208;5.158;2022-10-13T07:36:37;101645.59;;;12.81;99.82
65758;BME280;52495;52.208;5.158;2022-10-13T07:39:05;101635.19;;;12.86;99.77
65758;BME280;52495;52.208;5.158;2022-10-13T07:41:32;101639.44;;;12.90;100.00
65758;BME280;52495;52.208;5.158;2022-10-13T07:44:00;101638.56;;;12.93;100.00
65758;BME280;52495;52.208;5.158;2022-10-13T07:46:28;101632.44;;;12.97;100.00
65758;BME280;52495;52.208;5.158;2022-10-13T07:48:55;101628.91;;;13.01;100.00
65758;BME280;52495;52.208;5.158;2022-10-13T07:51:21;101634.06;;;13.05;100.00
65758;BME280;52495;52.208;5.158;2022-10-13T07:53:49;101639.16;;;13.09;100.00
65758;BME280;52495;52.208;5.158;2022-10-13T07:56:16;101624.44;;;13.12;100.00
65758;BME280;52495;52.208;5.158;2022-10-13T07:58:43;101624.38;;;13.15;100.00
65758;BME280;52495;52.208;5.158;2022-10-13T08:01:10;101628.69;;;13.18;100.00
65758;BME280;52495;52.208;5.158;2022-10-13T08:03:39;101622.56;;;13.20;100.00
65758;BME280;52495;52.208;5.158;2022-10-13T08:06:14;101623.38;;;13.24;100.00
65758;BME280;52495;52.208;5.158;2022-10-13T08:08:41;101632.81;;;13.28;100.00
65758;BME280;52495;52.208;5.158;2022-10-13T08:11:11;101636.25;;;13.30;100.00
65758;BME280;52495;52.208;5.158;2022-10-13T08:13:38;101633.66;;;13.30;100.00
65758;BME280;52495;52.208;5.158;2022-10-13T08:16:18;101631.06;;;13.32;100.00
65758;BME280;52495;52.208;5.158;2022-10-13T08:18:47;101634.44;;;13.35;100.00
65758;BME280;52495;52.208;5.158;2022-10-13T08:21:15;101633.56;;;13.36;100.00
65758;BME280;52495;52.208;5.158;2022-10-13T08:23:42;101633.53;;;13.41;100.00
65758;BME280;52495;52.208;5.158;2022-10-13T08:26:12;101623.94;;;13.45;100.00
65758;BME280;52495;52.208;5.158;2022-10-13T08:28:39;101629.88;;;13.51;100.00
65758;BME280;52495;52.208;5.158;2022-10-13T08:31:06;101633.22;;;13.58;100.00
65758;BME280;52495;52.208;5.158;2022-10-13T08:33:33;101628.88;;;13.62;100.00
65758;BME280;52495;52.208;5.158;2022-10-13T08:36:01;101632.25;;;13.65;100.00
65758;BME280;52495;52.208;5.158;2022-10-13T08:38:28;101636.50;;;13.70;100.00
65758;BME280;52495;52.208;5.158;2022-10-13T08:40:54;101628.66;;;13.74;100.00
65758;BME280;52495;52.208;5.158;2022-10-13T08:43:21;101632.03;;;13.78;100.00
65758;BME280;52495;52.208;5.158;2022-10-13T08:45:49;101627.66;;;13.81;100.00
65758;BME280;52495;52.208;5.158;2022-10-13T08:48:16;101630.16;;;13.86;100.00
65758;BME280;52495;52.208;5.158;2022-10-13T08:50:45;101623.16;;;13.90;100.00
65758;BME280;52495;52.208;5.158;2022-10-13T08:53:16;101617.97;;;13.91;100.00
65758;BME280;52495;52.208;5.158;2022-10-13T08:55:47;101621.34;;;13.95;100.00
65758;BME280;52495;52.208;5.158;2022-10-13T08:58:16;101623.91;;;13.96;100.00
65758;BME280;52495;52.208;5.158;2022-10-13T09:00:44;101618.72;;;13.98;100.00
65758;BME280;52495;52.208;5.158;2022-10-13T09:03:21;101618.72;;;13.98;100.00
65758;BME280;52495;52.208;5.158;2022-10-13T09:05:53;101625.63;;;13.98;100.00
65758;BME280;52495;52.208;5.158;2022-10-13T09:08:25;101623.94;;;13.95;100.00
65758;BME280;52495;52.208;5.158;2022-10-13T09:10:52;101619.59;;;13.95;100.00
65758;BME280;52495;52.208;5.158;2022-10-13T09:13:20;101615.38;;;13.90;99.85
65758;BME280;52495;52.208;5.158;2022-10-13T09:15:48;101613.66;;;13.90;99.97
65758;BME280;52495;52.208;5.158;2022-10-13T09:18:15;101623.16;;;13.90;99.46
65758;BME280;52495;52.208;5.158;2022-10-13T09:20:42;101624.09;;;13.87;99.90
65758;BME280;52495;52.208;5.158;2022-10-13T09:23:15;101611.94;;;13.89;99.75
65758;BME280;52495;52.208;5.158;2022-10-13T09:25:44;101614.50;;;13.91;100.00
65758;BME280;52495;52.208;5.158;2022-10-13T09:28:15;101610.19;;;13.91;99.85
65758;BME280;52495;52.208;5.158;2022-10-13T09:30:45;101611.84;;;13.94;99.78
65758;BME280;52495;52.208;5.158;2022-10-13T09:33:22;101615.28;;;13.96;99.82
65758;BME280;52495;52.208;5.158;2022-10-13T09:36:04;101625.63;;;13.98;99.78
65758;BME280;52495;52.208;5.158;2022-10-13T09:38:32;101624.72;;;14.00;100.00
65758;BME280;52495;52.208;5.158;2022-10-13T09:41:01;101623.81;;;14.01;100.00
65758;BME280;52495;52.208;5.158;2022-10-13T09:43:32;101622.94;;;14.02;99.56
65758;BME280;52495;52.208;5.158;2022-10-13T09:45:59;101620.38;;;14.01;99.52
65758;BME280;52495;52.208;5.158;2022-10-13T09:48:28;101625.53;;;14.02;99.10
65758;BME280;52495;52.208;5.158;2022-10-13T09:50:55;101625.50;;;14.04;99.52
65758;BME280;52495;52.208;5.158;2022-10-13T09:53:24;101627.22;;;14.05;99.28
65758;BME280;52495;52.208;5.158;2022-10-13T09:56:07;101626.34;;;14.04;99.21
65758;BME280;52495;52.208;5.158;2022-10-13T09:58:34;101627.19;;;14.06;98.83
65758;BME280;52495;52.208;5.158;2022-10-13T10:01:02;101623.72;;;14.07;98.77
65758;BME280;52495;52.208;5.158;2022-10-13T10:03:30;101623.72;;;14.07;98.82
65758;BME280;52495;52.208;5.158;2022-10-13T10:05:58;101614.97;;;14.11;99.16
65758;BME280;52495;52.208;5.158;2022-10-13T10:08:28;101616.59;;;14.17;99.65
65758;BME280;52495;52.208;5.158;2022-10-13T10:10:58;101611.31;;;14.22;99.40
65758;BME280;52495;52.208;5.158;2022-10-13T10:13:26;101610.34;;;14.26;98.96
65758;BME280;52495;52.208;5.158;2022-10-13T10:15:54;101605.06;;;14.32;98.46
65758;BME280;52495;52.208;5.158;2022-10-13T10:18:23;101608.44;;;14.36;98.26
65758;BME280;52495;52.208;5.158;2022-10-13T10:20:58;101610.91;;;14.42;97.87
65758;BME280;52495;52.208;5.158;2022-10-13T10:23:30;101607.28;;;14.49;97.83
65758;BME280;52495;52.208;5.158;2022-10-13T10:26:00;101598.50;;;14.55;97.83
65758;BME280;52495;52.208;5.158;2022-10-13T10:28:37;101599.25;;;14.60;97.60
65758;BME280;52495;52.208;5.158;2022-10-13T10:31:07;101593.88;;;14.69;97.75
65758;BME280;52495;52.208;5.158;2022-10-13T10:33:39;101592.03;;;14.76;96.95
65758;BME280;52495;52.208;5.158;2022-10-13T10:36:10;101596.28;;;14.79;95.74
65758;BME280;52495;52.208;5.158;2022-10-13T10:38:43;101602.19;;;14.85;95.79
65758;BME280;52495;52.208;5.158;2022-10-13T10:41:12;101597.78;;;14.89;94.44
65758;BME280;52495;52.208;5.158;2022-10-13T10:43:46;101593.38;;;14.91;93.87
65758;BME280;52495;52.208;5.158;2022-10-13T10:46:16;101589.84;;;14.95;94.13
65758;BME280;52495;52.208;5.158;2022-10-13T10:48:43;101588.91;;;14.98;93.46
65758;BME280;52495;52.208;5.158;2022-10-13T10:51:12;101590.59;;;15.00;93.10
65758;BME280;52495;52.208;5.158;2022-10-13T10:53:43;101598.28;;;15.03;92.91
65758;BME280;52495;52.208;5.158;2022-10-13T10:56:14;101597.31;;;15.09;93.09
65758;BME280;52495;52.208;5.158;2022-10-13T10:58:43;101588.50;;;15.15;93.26
65758;BME280;52495;52.208;5.158;2022-10-13T11:01:19;101582.28;;;15.21;92.77
65758;BME280;52495;52.208;5.158;2022-10-13T11:03:53;101589.34;;;15.17;90.30
65758;BME280;52495;52.208;5.158;2022-10-13T11:09:08;101580.59;;;15.20;89.75
65758;BME280;52495;52.208;5.158;2022-10-13T11:11:36;101574.50;;;15.21;89.76
65758;BME280;52495;52.208;5.158;2022-10-13T11:17:06;101576.16;;;15.23;89.62
65758;BME280;52495;52.208;5.158;2022-10-13T11:19:35;101577.88;;;15.24;89.05
65758;BME280;52495;52.208;5.158;2022-10-13T11:24:48;101573.56;;;15.23;89.08
65758;BME280;52495;52.208;5.158;2022-10-13T11:27:22;101571.81;;;15.24;89.14
65758;BME280;52495;52.208;5.158;2022-10-13T11:29:50;101561.38;;;15.25;89.50
65758;BME280;52495;52.208;5.158;2022-10-13T11:38:16;101556.03;;;15.30;89.42
65758;BME280;52495;52.208;5.158;2022-10-13T11:40:55;101547.25;;;15.36;89.56
65758;BME280;52495;52.208;5.158;2022-10-13T11:43:32;101548.84;;;15.40;89.75
65758;BME280;52495;52.208;5.158;2022-10-13T11:48:53;101547.84;;;15.45;89.07
65758;BME280;52495;52.208;5.158;2022-10-13T11:51:28;101536.44;;;15.50;88.82
65758;BME280;52495;52.208;5.158;2022-10-13T11:53:59;101544.09;;;15.56;88.72
65758;BME280;52495;52.208;5.158;2022-10-13T11:56:33;101538.03;;;15.55;87.74
65758;BME280;52495;52.208;5.158;2022-10-13T11:59:00;101539.75;;;15.56;87.69
65758;BME280;52495;52.208;5.158;2022-10-13T12:01:27;101532.72;;;15.60;87.77
65758;BME280;52495;52.208;5.158;2022-10-13T12:03:53;101530.00;;;15.65;87.57
65758;BME280;52495;52.208;5.158;2022-10-13T12:06:24;101522.09;;;15.68;87.67
65758;BME280;52495;52.208;5.158;2022-10-13T12:08:59;101526.28;;;15.73;87.49
65758;BME280;52495;52.208;5.158;2022-10-13T12:11:27;101525.31;;;15.77;87.01
65758;BME280;52495;52.208;5.158;2022-10-13T12:13:54;101524.41;;;15.78;86.73
65758;BME280;52495;52.208;5.158;2022-10-13T12:16:21;101520.94;;;15.78;85.62
65758;BME280;52495;52.208;5.158;2022-10-13T12:18:48;101515.78;;;15.76;85.59
65758;BME280;52495;52.208;5.158;2022-10-13T12:21:17;101515.13;;;15.68;85.11
65758;BME280;52495;52.208;5.158;2022-10-13T12:23:45;101517.91;;;15.62;85.49
65758;BME280;52495;52.208;5.158;2022-10-13T12:26:14;101512.75;;;15.60;86.48
65758;BME280;52495;52.208;5.158;2022-10-13T12:28:45;101505.00;;;15.57;87.11
65758;BME280;52495;52.208;5.158;2022-10-13T12:31:17;101506.72;;;15.58;88.03
65758;BME280;52495;52.208;5.158;2022-10-13T12:33:50;101502.31;;;15.62;88.45
65758;BME280;52495;52.208;5.158;2022-10-13T12:36:17;101498.69;;;15.66;88.73
65758;BME280;52495;52.208;5.158;2022-10-13T12:38:46;101495.13;;;15.70;88.90
65758;BME280;52495;52.208;5.158;2022-10-13T12:41:18;101493.31;;;15.72;88.46
65758;BME280;52495;52.208;5.158;2022-10-13T12:43:45;101483.75;;;15.73;87.60
65758;BME280;52495;52.208;5.158;2022-10-13T12:46:19;101483.75;;;15.73;87.15
65758;BME280;52495;52.208;5.158;2022-10-13T12:49:05;101496.00;;;15.71;86.87
65758;BME280;52495;52.208;5.158;2022-10-13T12:51:32;101488.25;;;15.68;86.59
65758;BME280;52495;52.208;5.158;2022-10-13T12:53:59;101497.19;;;15.57;86.59
65758;BME280;52495;52.208;5.158;2022-10-13T12:56:32;101499.19;;;15.49;86.67
65758;BME280;52495;52.208;5.158;2022-10-13T12:58:59;101494.09;;;15.44;86.97
65758;BME280;52495;52.208;5.158;2022-10-13T13:01:27;101492.47;;;15.40;87.50
65758;BME280;52495;52.208;5.158;2022-10-13T13:03:55;101492.59;;;15.36;87.77
65758;BME280;52495;52.208;5.158;2022-10-13T13:06:32;101486.59;;;15.33;88.43
65758;BME280;52495;52.208;5.158;2022-10-13T13:09:05;101501.41;;;15.30;88.36
65758;BME280;52495;52.208;5.158;2022-10-13T13:11:34;101493.66;;;15.28;88.58
65758;BME280;52495;52.208;5.158;2022-10-13T13:17:03;101482.50;;;15.23;89.02
65758;BME280;52495;52.208;5.158;2022-10-13T13:19:30;101493.78;;;15.24;89.00
65758;BME280;52495;52.208;5.158;2022-10-13T13:21:56;101488.56;;;15.24;88.60